sensor_id;sensor_type;location;lat;lon;timestamp;temperature;humidity
10143;DHT22;5112;54.088;13.446;2023-12-20T00:02:27;6.40;99.90
10143;DHT22;5112;54.088;13.446;2023-12-20T00:12:30;6.30;99.90
10143;DHT22;5112;54.088;13.446;2023-12-20T00:22:31;6.20;99.90
10143;DHT22;5112;54.088;13.446;2023-12-20T00:32:34;6.30;99.90
10143;DHT22;5112;54.088;13.446;2023-12-20T00:42:36;6.20;99.90
10143;DHT22;5112;54.088;13.446;2023-12-20T00:52:39;6.20;99.90
10143;DHT22;5112;54.088;13.446;2023-12-20T01:02:41;6.10;99.90
10143;DHT22;5112;54.088;13.446;2023-12-20T01:12:44;6.10;99.90
10143;DHT22;5112;54.088;13.446;2023-12-20T01:22:46;6.00;99.90
10143;DHT22;5112;54.088;13.446;2023-12-20T01:32:49;5.90;99.90
10143;DHT22;5112;54.088;13.446;2023-12-20T01:42:58;5.90;99.90
10143;DHT22;5112;54.088;13.446;2023-12-20T01:53:02;5.80;99.90
10143;DHT22;5112;54.088;13.446;2023-12-20T02:03:05;5.60;99.90
10143;DHT22;5112;54.088;13.446;2023-12-20T02:13:08;5.50;99.90
10143;DHT22;5112;54.088;13.446;2023-12-20T02:23:11;5.40;99.90
10143;DHT22;5112;54.088;13.446;2023-12-20T02:33:14;5.40;99.90
10143;DHT22;5112;54.088;13.446;2023-12-20T02:43:18;5.50;99.90
10143;DHT22;5112;54.088;13.446;2023-12-20T02:53:19;5.60;99.90
10143;DHT22;5112;54.088;13.446;2023-12-20T03:03:22;5.70;99.90
10143;DHT22;5112;54.088;13.446;2023-12-20T03:13:24;5.80;99.90
10143;DHT22;5112;54.088;13.446;2023-12-20T03:23:27;5.90;99.90
10143;DHT22;5112;54.088;13.446;2023-12-20T03:33:28;5.90;99.90
10143;DHT22;5112;54.088;13.446;2023-12-20T03:43:31;5.90;99.90
10143;DHT22;5112;54.088;13.446;2023-12-20T03:53:33;5.90;99.90
10143;DHT22;5112;54.088;13.446;2023-12-20T04:03:36;5.90;99.90
10143;DHT22;5112;54.088;13.446;2023-12-20T04:13:37;5.90;99.90
10143;DHT22;5112;54.088;13.446;2023-12-20T04:23:40;6.00;99.90
10143;DHT22;5112;54.088;13.446;2023-12-20T04:33:42;6.10;99.90
10143;DHT22;5112;54.088;13.446;2023-12-20T04:43:45;6.10;99.90
10143;DHT22;5112;54.088;13.446;2023-12-20T04:53:46;6.20;99.90
10143;DHT22;5112;54.088;13.446;2023-12-20T05:03:49;6.30;99.90
10143;DHT22;5112;54.088;13.446;2023-12-20T05:13:51;6.30;99.90
10143;DHT22;5112;54.088;13.446;2023-12-20T05:23:54;6.30;99.90
10143;DHT22;5112;54.088;13.446;2023-12-20T05:33:56;6.40;99.90
10143;DHT22;5112;54.088;13.446;2023-12-20T05:43:58;6.40;99.90
10143;DHT22;5112;54.088;13.446;2023-12-20T05:54:00;6.40;99.90
10143;DHT22;5112;54.088;13.446;2023-12-20T06:04:03;6.40;99.90
10143;DHT22;5112;54.088;13.446;2023-12-20T06:14:05;6.40;99.90
10143;DHT22;5112;54.088;13.446;2023-12-20T06:24:08;6.50;99.90
10143;DHT22;5112;54.088;13.446;2023-12-20T06:34:10;6.50;99.90
10143;DHT22;5112;54.088;13.446;2023-12-20T06:44:13;6.50;99.90
10143;DHT22;5112;54.088;13.446;2023-12-20T06:54:14;6.40;99.90
10143;DHT22;5112;54.088;13.446;2023-12-20T07:04:17;6.50;99.90
10143;DHT22;5112;54.088;13.446;2023-12-20T07:14:22;6.50;99.90
10143;DHT22;5112;54.088;13.446;2023-12-20T07:24:25;6.40;99.90
10143;DHT22;5112;54.088;13.446;2023-12-20T07:34:27;6.40;99.90
10143;DHT22;5112;54.088;13.446;2023-12-20T07:44:29;6.30;99.90
10143;DHT22;5112;54.088;13.446;2023-12-20T07:54:31;6.30;99.90
10143;DHT22;5112;54.088;13.446;2023-12-20T08:04:34;6.30;99.90
10143;DHT22;5112;54.088;13.446;2023-12-20T08:14:36;6.30;99.90
10143;DHT22;5112;54.088;13.446;2023-12-20T08:24:39;6.40;99.90
10143;DHT22;5112;54.088;13.446;2023-12-20T08:34:40;6.30;99.90
10143;DHT22;5112;54.088;13.446;2023-12-20T08:44:43;6.30;99.90
10143;DHT22;5112;54.088;13.446;2023-12-20T08:54:45;6.30;99.90
10143;DHT22;5112;54.088;13.446;2023-12-20T09:04:48;6.30;99.90
10143;DHT22;5112;54.088;13.446;2023-12-20T09:14:51;6.40;99.90
10143;DHT22;5112;54.088;13.446;2023-12-20T09:24:54;6.50;99.90
10143;DHT22;5112;54.088;13.446;2023-12-20T09:34:56;6.50;99.90
10143;DHT22;5112;54.088;13.446;2023-12-20T09:45:01;6.40;99.90
10143;DHT22;5112;54.088;13.446;2023-12-20T09:55:04;6.20;99.90
10143;DHT22;5112;54.088;13.446;2023-12-20T10:05:08;6.30;99.90
10143;DHT22;5112;54.088;13.446;2023-12-20T10:15:10;6.40;99.90
10143;DHT22;5112;54.088;13.446;2023-12-20T10:25:13;6.40;99.90
10143;DHT22;5112;54.088;13.446;2023-12-20T10:35:14;6.40;99.90
10143;DHT22;5112;54.088;13.446;2023-12-20T10:45:18;6.50;99.90
10143;DHT22;5112;54.088;13.446;2023-12-20T10:55:20;6.70;99.90
10143;DHT22;5112;54.088;13.446;2023-12-20T11:05:31;6.70;99.90
10143;DHT22;5112;54.088;13.446;2023-12-20T11:15:35;6.70;99.90
10143;DHT22;5112;54.088;13.446;2023-12-20T11:25:49;6.60;99.90
10143;DHT22;5112;54.088;13.446;2023-12-20T11:35:56;6.40;99.90
10143;DHT22;5112;54.088;13.446;2023-12-20T11:46:04;6.30;99.90
10143;DHT22;5112;54.088;13.446;2023-12-20T11:56:07;6.30;99.90
10143;DHT22;5112;54.088;13.446;2023-12-20T12:06:10;6.30;99.90
10143;DHT22;5112;54.088;13.446;2023-12-20T12:16:11;6.20;99.90
10143;DHT22;5112;54.088;13.446;2023-12-20T12:26:14;6.30;99.90
10143;DHT22;5112;54.088;13.446;2023-12-20T12:36:16;6.20;99.90
10143;DHT22;5112;54.088;13.446;2023-12-20T12:46:19;6.20;99.90
10143;DHT22;5112;54.088;13.446;2023-12-20T12:56:22;6.30;99.90
10143;DHT22;5112;54.088;13.446;2023-12-20T13:06:25;6.50;99.90
10143;DHT22;5112;54.088;13.446;2023-12-20T13:16:27;6.20;99.90
10143;DHT22;5112;54.088;13.446;2023-12-20T13:26:30;6.10;99.90
10143;DHT22;5112;54.088;13.446;2023-12-20T13:36:31;6.10;99.90
10143;DHT22;5112;54.088;13.446;2023-12-20T13:46:34;6.10;99.90
10143;DHT22;5112;54.088;13.446;2023-12-20T13:56:37;6.00;99.90
10143;DHT22;5112;54.088;13.446;2023-12-20T14:06:40;6.10;99.90
10143;DHT22;5112;54.088;13.446;2023-12-20T14:16:42;6.10;99.90
10143;DHT22;5112;54.088;13.446;2023-12-20T14:26:46;6.00;99.90
